Time;durP1;ratioP1;P1;durP2;ratioP2;P2;SDS_P1;SDS_P2;PMS_P1;PMS_P2;Temp;Humidity;BMP_temperature;BMP_pressure;BME280_temperature;BME280_humidity;BME280_pressure;Samples;Min_cycle;Max_cycle;Signal;HPM_P1;HPM_P2
2021/01/14 00:00:30;;;;;;;3.87;1.50;;;;;;;1.38;90.37;100392.81;5073540;28;20222;-69
2021/01/14 00:02:58;;;;;;;3.57;1.50;;;;;;;1.34;90.95;100404.19;5091105;28;20538;-69
2021/01/14 00:05:24;;;;;;;2.03;1.23;;;;;;;1.35;90.66;100387.88;5056314;28;20793;-69
2021/01/14 00:07:53;;;;;;;3.33;1.20;;;;;;;1.54;91.13;100392.25;5091134;28;20190;-69
2021/01/14 00:10:19;;;;;;;3.13;1.47;;;;;;;1.31;91.20;100409.97;5073705;28;20186;-69
2021/01/14 00:12:47;;;;;;;2.23;1.33;;;;;;;1.29;90.75;100415.53;5091074;28;20182;-69
2021/01/14 00:15:17;;;;;;;2.20;1.30;;;;;;;1.39;90.99;100405.16;5089914;28;20683;-69
2021/01/14 00:17:43;;;;;;;3.90;1.27;;;;;;;1.52;90.86;100405.84;5090766;28;20182;-69
2021/01/14 00:20:13;;;;;;;4.23;1.50;;;;;;;1.40;90.97;100412.13;5073564;28;20193;-67
2021/01/14 00:22:39;;;;;;;3.23;1.40;;;;;;;1.32;91.14;100420.44;5073896;28;20189;-69
2021/01/14 00:25:05;;;;;;;1.50;1.13;;;;;;;1.31;91.52;100423.31;5090073;28;20206;-69
2021/01/14 00:27:31;;;;;;;3.77;1.50;;;;;;;1.25;92.02;100414.31;5090051;28;20222;-69
2021/01/14 00:29:56;;;;;;;3.67;1.37;;;;;;;1.43;91.64;100422.41;5090931;28;20194;-69
2021/01/14 00:32:23;;;;;;;3.13;1.20;;;;;;;1.49;91.23;100426.06;5073391;28;20305;-68
2021/01/14 00:34:48;;;;;;;2.07;1.30;;;;;;;1.35;91.10;100436.03;5074318;28;20243;-69
2021/01/14 00:39:58;;;;;;;3.67;1.20;;;;;;;1.42;91.27;100442.16;5092068;28;20190;-69
2021/01/14 00:42:23;;;;;;;6.53;1.30;;;;;;;1.45;91.06;100446.22;5091449;28;20218;-68
2021/01/14 00:44:54;;;;;;;4.00;1.37;;;;;;;1.47;90.91;100455.69;5092899;28;20297;-68
2021/01/14 00:47:19;;;;;;;2.83;1.27;;;;;;;1.45;90.83;100462.28;5073815;28;20241;-69
2021/01/14 00:49:45;;;;;;;4.07;1.33;;;;;;;1.44;91.03;100461.47;5073345;28;20691;-68
2021/01/14 00:52:11;;;;;;;3.07;1.07;;;;;;;1.49;91.09;100464.31;5072912;28;20218;-69
2021/01/14 00:54:39;;;;;;;2.13;1.10;;;;;;;1.44;90.77;100472.16;5091433;28;20239;-69
2021/01/14 00:57:11;;;;;;;2.67;1.20;;;;;;;1.48;91.52;100478.72;5090178;28;20225;-70
2021/01/14 00:59:36;;;;;;;1.83;1.23;;;;;;;1.56;91.56;100470.44;5073652;28;20212;-69
2021/01/14 01:02:03;;;;;;;2.00;1.03;;;;;;;1.54;91.02;100478.69;5073500;28;20218;-70
2021/01/14 01:04:29;;;;;;;4.37;1.20;;;;;;;1.54;91.51;100478.69;5090169;28;20206;-70
2021/01/14 01:06:55;;;;;;;2.37;1.00;;;;;;;1.52;91.16;100484.47;5089685;28;20229;-69
2021/01/14 01:09:23;;;;;;;4.50;1.37;;;;;;;1.53;91.46;100486.91;5073778;28;20202;-69
2021/01/14 01:11:49;;;;;;;2.70;1.23;;;;;;;1.53;91.58;100493.09;5056368;28;20254;-68
2021/01/14 01:14:14;;;;;;;3.17;1.30;;;;;;;1.43;92.26;100502.66;5091411;28;20197;-68
2021/01/14 01:16:42;;;;;;;2.03;1.27;;;;;;;1.50;91.84;100495.38;5093501;28;20246;-68
2021/01/14 01:19:08;;;;;;;4.20;1.40;;;;;;;1.57;91.80;100514.88;5094815;28;20175;-68
2021/01/14 01:21:33;;;;;;;3.90;1.60;;;;;;;1.51;92.35;100515.75;5076846;28;20279;-68
2021/01/14 01:23:59;;;;;;;3.47;1.63;;;;;;;1.50;92.28;100530.16;5094430;28;20690;-68
2021/01/14 01:26:27;;;;;;;3.93;1.57;;;;;;;1.56;92.29;100535.47;5093366;28;20692;-68
2021/01/14 01:28:53;;;;;;;2.30;1.20;;;;;;;1.58;92.25;100532.56;5094369;28;20189;-68
2021/01/14 01:31:20;;;;;;;2.87;1.47;;;;;;;1.57;92.82;100537.09;5076212;28;20210;-68
2021/01/14 01:33:46;;;;;;;2.87;1.73;;;;;;;1.66;92.73;100534.97;5077475;28;20568;-68
2021/01/14 01:36:14;;;;;;;2.90;1.40;;;;;;;1.59;92.52;100544.91;5042825;28;20226;-68
2021/01/14 01:38:40;;;;;;;4.40;1.80;;;;;;;1.61;92.58;100545.50;5094027;28;20186;-68
2021/01/14 01:41:06;;;;;;;3.67;1.40;;;;;;;1.64;93.20;100547.75;5059868;28;20458;-68
2021/01/14 01:43:34;;;;;;;2.80;1.27;;;;;;;1.47;93.58;100549.34;5093749;28;20182;-68
2021/01/14 01:46:03;;;;;;;2.90;1.50;;;;;;;1.60;93.42;100551.91;5094121;28;20221;-68
2021/01/14 01:48:28;;;;;;;3.23;1.57;;;;;;;1.67;93.31;100558.84;5060514;28;20178;-69
2021/01/14 01:50:58;;;;;;;2.83;1.63;;;;;;;1.55;93.65;100549.06;5060944;28;20229;-68
2021/01/14 01:53:24;;;;;;;2.33;1.60;;;;;;;1.63;93.91;100562.16;5057556;28;20180;-68
2021/01/14 01:55:52;;;;;;;2.37;1.77;;;;;;;1.62;94.47;100572.06;5075785;28;20593;-68
2021/01/14 01:58:24;;;;;;;3.83;2.10;;;;;;;1.57;94.63;100573.75;5093436;28;20590;-69
2021/01/14 02:00:54;;;;;;;2.53;1.73;;;;;;;1.62;94.79;100573.91;5093931;28;20313;-69
2021/01/14 02:03:20;;;;;;;4.37;1.90;;;;;;;1.60;94.93;100573.31;5093370;28;20185;-68
2021/01/14 02:05:45;;;;;;;4.13;1.70;;;;;;;1.70;95.05;100576.31;5093675;28;20606;-68
2021/01/14 02:08:28;;;;;;;3.50;1.70;;;;;;;1.63;95.20;100579.06;5093484;28;20242;-68
2021/01/14 02:10:55;;;;;;;3.20;1.77;;;;;;;1.65;95.39;100582.34;5075310;28;20324;-69
2021/01/14 02:13:34;;;;;;;3.47;1.70;;;;;;;1.59;95.42;100593.91;5043151;28;20182;-68
2021/01/14 02:16:01;;;;;;;2.97;1.87;;;;;;;1.66;95.63;100589.31;5058622;28;20226;-68
2021/01/14 02:18:27;;;;;;;2.73;1.60;;;;;;;1.68;95.73;100597.13;5076168;28;20545;-69
2021/01/14 02:21:00;;;;;;;3.20;1.90;;;;;;;1.61;96.46;100601.69;5092509;28;20221;-68
2021/01/14 02:23:37;;;;;;;4.63;2.00;;;;;;;1.65;96.30;100610.97;5075957;28;20189;-69
2021/01/14 02:26:25;;;;;;;2.37;1.70;;;;;;;1.65;96.88;100614.44;5092544;28;20226;-69
2021/01/14 02:28:51;;;;;;;3.57;2.20;;;;;;;1.60;97.41;100622.28;5077336;28;20183;-69
2021/01/14 02:31:17;;;;;;;2.60;1.87;;;;;;;1.53;98.04;100618.03;5092436;28;20269;-68
2021/01/14 02:33:43;;;;;;;4.40;2.03;;;;;;;1.59;98.38;100625.19;5075555;28;20199;-68
2021/01/14 02:36:08;;;;;;;2.23;1.97;;;;;;;1.56;98.88;100641.69;5075191;28;20218;-68
2021/01/14 02:38:36;;;;;;;2.90;2.20;;;;;;;1.56;99.61;100633.66;5075685;28;20190;-68
2021/01/14 02:41:01;;;;;;;4.50;2.30;;;;;;;1.62;99.62;100640.81;5092014;28;20223;-68
2021/01/14 02:43:29;;;;;;;3.57;2.20;;;;;;;1.62;99.94;100646.97;5075430;28;20208;-68
2021/01/14 02:45:57;;;;;;;3.70;2.20;;;;;;;1.57;100.00;100644.13;5074917;28;20218;-69
2021/01/14 02:48:28;;;;;;;7.07;2.40;;;;;;;1.57;100.00;100648.66;5058907;28;20224;-69
2021/01/14 02:50:54;;;;;;;3.67;2.50;;;;;;;1.55;100.00;100656.09;5091988;28;20589;-68
2021/01/14 02:53:24;;;;;;;3.37;2.53;;;;;;;1.53;100.00;100655.47;5075318;28;20184;-68
2021/01/14 02:55:52;;;;;;;5.10;2.77;;;;;;;1.61;100.00;100663.25;5074515;28;20584;-68
2021/01/14 02:58:18;;;;;;;3.63;2.40;;;;;;;1.55;100.00;100682.84;5092280;28;20212;-68
2021/01/14 03:00:46;;;;;;;4.33;2.70;;;;;;;1.52;100.00;100683.28;5091322;28;20237;-68
2021/01/14 03:03:13;;;;;;;3.40;2.40;;;;;;;1.53;100.00;100682.22;5076182;28;20614;-68
2021/01/14 03:05:39;;;;;;;4.73;2.70;;;;;;;1.56;100.00;100687.16;5057207;28;20261;-68
2021/01/14 03:08:05;;;;;;;4.87;2.57;;;;;;;1.57;100.00;100691.47;5092364;28;20175;-69
2021/01/14 03:10:30;;;;;;;5.23;2.40;;;;;;;1.58;100.00;100695.81;5091281;28;20691;-68
2021/01/14 03:12:56;;;;;;;5.77;3.10;;;;;;;1.67;100.00;100697.19;5075351;28;20198;-68
2021/01/14 03:15:24;;;;;;;4.47;2.80;;;;;;;1.78;100.00;100700.00;5090708;28;20198;-69
2021/01/14 03:17:50;;;;;;;6.37;3.07;;;;;;;1.69;100.00;100711.19;5074925;28;20181;-68
2021/01/14 03:20:15;;;;;;;4.40;3.17;;;;;;;1.62;100.00;100710.38;5091322;28;20193;-69
2021/01/14 03:22:41;;;;;;;4.23;2.87;;;;;;;1.71;100.00;100715.28;5091549;28;20561;-68
2021/01/14 03:25:12;;;;;;;3.83;3.00;;;;;;;1.63;100.00;100712.00;5057603;28;20237;-69
2021/01/14 03:27:43;;;;;;;6.20;2.93;;;;;;;1.62;100.00;100726.44;5074789;28;20182;-68
2021/01/14 03:30:10;;;;;;;4.63;3.13;;;;;;;1.65;100.00;100732.19;5074056;28;20195;-68
2021/01/14 03:32:38;;;;;;;5.97;3.60;;;;;;;1.69;100.00;100728.06;5091251;28;20556;-68
2021/01/14 03:35:04;;;;;;;6.40;3.80;;;;;;;1.64;100.00;100735.09;5072868;28;20203;-68
2021/01/14 03:37:36;;;;;;;3.93;2.83;;;;;;;1.60;100.00;100740.03;5091524;28;20263;-68
2021/01/14 03:40:02;;;;;;;5.30;3.73;;;;;;;1.71;100.00;100741.22;5058562;28;20193;-69
2021/01/14 03:42:27;;;;;;;6.03;3.43;;;;;;;1.66;100.00;100743.72;5057424;28;20234;-68
2021/01/14 03:44:55;;;;;;;6.30;3.50;;;;;;;1.68;100.00;100755.84;5057089;28;20688;-69
2021/01/14 03:47:22;;;;;;;5.63;3.40;;;;;;;1.72;100.00;100754.41;5090722;28;20226;-69
2021/01/14 03:49:48;;;;;;;6.30;3.47;;;;;;;1.67;100.00;100764.09;5074372;28;20193;-68
2021/01/14 03:52:13;;;;;;;5.47;3.63;;;;;;;1.69;100.00;100760.16;5089566;28;20214;-68
2021/01/14 03:54:39;;;;;;;6.13;3.73;;;;;;;1.63;100.00;100760.19;5090398;28;20205;-68
2021/01/14 03:57:07;;;;;;;6.10;3.90;;;;;;;1.64;100.00;100768.00;5073314;28;20252;-69
2021/01/14 03:59:33;;;;;;;5.00;3.63;;;;;;;1.62;100.00;100777.28;5091222;28;20186;-68
2021/01/14 04:02:00;;;;;;;4.97;3.90;;;;;;;1.66;100.00;100782.00;5091964;28;20232;-68
2021/01/14 04:04:27;;;;;;;5.37;4.20;;;;;;;1.80;100.00;100788.13;5057931;28;20218;-69
2021/01/14 04:06:53;;;;;;;4.80;3.83;;;;;;;1.78;100.00;100792.88;5091539;28;20218;-69
2021/01/14 04:09:19;;;;;;;6.07;3.93;;;;;;;1.78;100.00;100798.25;5091185;28;20183;-68
2021/01/14 04:11:44;;;;;;;4.23;3.73;;;;;;;1.77;100.00;100804.59;5089857;28;20260;-69
2021/01/14 04:14:10;;;;;;;5.47;3.80;;;;;;;1.80;100.00;100810.38;5088527;28;20194;-68
2021/01/14 04:16:35;;;;;;;5.67;3.80;;;;;;;1.90;100.00;100809.91;5056507;28;20749;-69
2021/01/14 04:19:07;;;;;;;5.37;3.87;;;;;;;1.79;100.00;100818.59;5044222;28;20186;-69
2021/01/14 04:21:33;;;;;;;4.70;3.83;;;;;;;1.83;100.00;100825.16;5070240;28;20218;-68
2021/01/14 04:24:01;;;;;;;5.67;3.77;;;;;;;1.81;100.00;100821.88;5087272;28;20207;-68
2021/01/14 04:26:29;;;;;;;4.80;3.53;;;;;;;1.78;100.00;100822.34;5089771;28;20279;-69
2021/01/14 04:28:57;;;;;;;5.23;3.93;;;;;;;1.78;100.00;100838.38;5073913;28;20603;-69
2021/01/14 04:31:25;;;;;;;5.57;4.07;;;;;;;1.72;100.00;100823.16;5090119;28;20221;-68
2021/01/14 04:33:52;;;;;;;4.93;4.00;;;;;;;1.77;100.00;100832.19;5073808;28;20687;-68
2021/01/14 04:36:18;;;;;;;4.90;3.93;;;;;;;1.71;100.00;100848.28;5073150;28;20253;-69
2021/01/14 04:38:44;;;;;;;6.47;4.43;;;;;;;1.78;100.00;100838.38;5073281;28;20186;-68
2021/01/14 04:41:12;;;;;;;6.40;4.43;;;;;;;1.65;100.00;100849.13;5089831;28;20809;-68
2021/01/14 04:43:37;;;;;;;5.60;4.17;;;;;;;1.79;100.00;100848.84;5055432;28;20206;-68
2021/01/14 04:46:06;;;;;;;4.67;4.20;;;;;;;1.76;100.00;100851.13;5074681;28;20229;-69
2021/01/14 04:48:39;;;;;;;4.47;3.80;;;;;;;1.80;100.00;100860.41;5052392;28;20179;-69
2021/01/14 04:51:12;;;;;;;5.23;4.03;;;;;;;1.87;100.00;100859.34;5054727;28;20227;-68
2021/01/14 04:53:40;;;;;;;5.97;4.20;;;;;;;1.81;100.00;100854.81;5067807;28;20210;-69
2021/01/14 04:56:07;;;;;;;4.93;4.07;;;;;;;1.94;100.00;100860.13;5053549;28;20921;-69
2021/01/14 04:58:37;;;;;;;6.03;3.80;;;;;;;1.92;100.00;100862.19;5089376;28;20265;-69
2021/01/14 05:01:17;;;;;;;6.43;3.80;;;;;;;1.91;100.00;100869.41;5055254;28;20214;-69
2021/01/14 05:03:45;;;;;;;4.27;3.80;;;;;;;1.94;100.00;100882.41;5071828;28;20258;-68
2021/01/14 05:06:10;;;;;;;6.87;4.03;;;;;;;1.88;100.00;100881.59;5071624;28;20221;-69
2021/01/14 05:08:38;;;;;;;7.90;3.80;;;;;;;1.93;100.00;100891.44;5056755;28;20182;-69
2021/01/14 05:11:04;;;;;;;4.93;3.37;;;;;;;2.09;100.00;100901.69;5053857;28;20245;-69
2021/01/14 05:13:30;;;;;;;4.03;3.37;;;;;;;2.14;100.00;100891.16;5056412;28;20185;-69
2021/01/14 05:15:56;;;;;;;3.97;3.10;;;;;;;2.11;100.00;100899.63;5089447;28;20226;-68
2021/01/14 05:18:24;;;;;;;4.90;3.63;;;;;;;2.20;100.00;100901.03;5080372;28;20588;-68
2021/01/14 05:20:50;;;;;;;3.93;3.50;;;;;;;2.18;100.00;100897.75;5059044;28;20221;-68
2021/01/14 05:23:19;;;;;;;5.63;4.20;;;;;;;2.24;100.00;100907.59;5088836;28;20251;-69
2021/01/14 05:25:56;;;;;;;4.83;3.53;;;;;;;2.21;100.00;100910.69;5067194;28;20234;-68
2021/01/14 05:28:23;;;;;;;4.73;3.70;;;;;;;2.13;100.00;100918.97;5055058;28;20187;-69
2021/01/14 05:30:49;;;;;;;4.43;3.57;;;;;;;2.17;100.00;100919.38;5066478;28;20218;-68
2021/01/14 05:33:24;;;;;;;5.80;4.23;;;;;;;2.14;100.00;100923.28;5025438;28;20264;-68
2021/01/14 05:35:50;;;;;;;4.37;3.50;;;;;;;2.22;100.00;100923.06;5073768;28;20225;-68
2021/01/14 05:38:20;;;;;;;9.13;3.70;;;;;;;2.15;100.00;100926.81;5083070;28;20201;-68
2021/01/14 05:41:10;;;;;;;5.00;3.83;;;;;;;2.14;100.00;100930.50;5068617;28;20225;-68
2021/01/14 05:43:31;;;;;;;3.93;3.33;;;;;;;2.07;100.00;100935.91;5075852;28;20194;-68
2021/01/14 05:46:13;;;;;;;4.57;3.67;;;;;;;2.14;100.00;100936.69;5098366;28;20606;-68
2021/01/14 05:48:39;;;;;;;3.90;3.50;;;;;;;2.09;100.00;100963.31;5053198;28;20179;-68
2021/01/14 05:51:14;;;;;;;4.37;3.43;;;;;;;2.15;100.00;100951.72;5035317;28;20219;-68
2021/01/14 05:53:51;;;;;;;5.70;3.60;;;;;;;2.18;100.00;100948.66;5037061;28;20208;-68
2021/01/14 05:56:48;;;;;;;6.20;3.63;;;;;;;2.13;100.00;100956.47;5029543;28;20233;-68
2021/01/14 05:59:18;;;;;;;5.03;3.83;;;;;;;2.15;100.00;100967.00;5059992;28;20671;-69
2021/01/14 06:01:57;;;;;;;6.20;4.50;;;;;;;2.23;100.00;100972.94;5018214;28;20289;-69
2021/01/14 06:04:30;;;;;;;4.93;3.60;;;;;;;2.23;100.00;100966.75;5049215;28;20272;-68
2021/01/14 06:07:04;;;;;;;4.23;3.53;;;;;;;2.20;100.00;100975.19;5072277;28;20714;-68
2021/01/14 06:09:39;;;;;;;5.30;3.67;;;;;;;2.10;100.00;100981.00;5072994;28;20261;-68
2021/01/14 06:12:11;;;;;;;6.27;3.90;;;;;;;2.25;100.00;100980.75;5072710;28;20226;-68
2021/01/14 06:14:37;;;;;;;5.60;4.10;;;;;;;2.25;100.00;100988.78;5043119;28;20692;-68
2021/01/14 06:17:07;;;;;;;7.10;4.03;;;;;;;2.18;100.00;100986.16;5053840;28;20219;-68
2021/01/14 06:19:33;;;;;;;8.10;4.40;;;;;;;2.34;100.00;100991.03;5036709;28;20188;-68
2021/01/14 06:21:58;;;;;;;5.37;3.90;;;;;;;2.21;100.00;100993.75;5056243;28;20222;-67
2021/01/14 06:24:40;;;;;;;5.00;3.80;;;;;;;2.21;100.00;101007.13;5071070;28;20305;-68
2021/01/14 06:27:05;;;;;;;5.70;3.70;;;;;;;2.30;100.00;101006.69;5039328;28;20215;-74
2021/01/14 06:29:37;;;;;;;6.27;4.10;;;;;;;2.26;100.00;101015.38;5068485;28;20181;-68
2021/01/14 06:32:17;;;;;;;5.43;3.60;;;;;;;2.35;100.00;101019.47;5072461;28;20253;-73
2021/01/14 06:34:44;;;;;;;6.87;4.23;;;;;;;2.39;100.00;101023.38;5073719;28;20217;-73
2021/01/14 06:37:11;;;;;;;6.43;4.00;;;;;;;2.35;100.00;101025.66;5073311;28;20304;-73
2021/01/14 06:39:58;;;;;;;7.83;4.00;;;;;;;2.40;100.00;101041.94;5060305;28;20182;-73
2021/01/14 06:42:27;;;;;;;5.20;4.27;;;;;;;2.43;100.00;101040.69;5040016;28;20218;-74
2021/01/14 06:44:54;;;;;;;6.90;4.47;;;;;;;2.54;100.00;101050.75;5038944;28;20218;-73
2021/01/14 06:47:32;;;;;;;5.70;3.63;;;;;;;2.44;100.00;101050.38;5054979;28;20264;-73
2021/01/14 06:50:26;;;;;;;7.60;4.00;;;;;;;2.42;100.00;101071.22;5039726;28;20182;-73
2021/01/14 06:53:15;;;;;;;8.80;3.70;;;;;;;2.44;100.00;101069.94;5068811;28;20607;-73
2021/01/14 06:55:41;;;;;;;9.17;4.33;;;;;;;2.56;100.00;101070.13;5071200;28;20231;-74
2021/01/14 06:58:07;;;;;;;7.60;4.33;;;;;;;2.57;100.00;101082.50;5071849;28;20225;-74
2021/01/14 07:00:50;;;;;;;7.67;3.80;;;;;;;2.68;100.00;101080.00;5071352;28;20225;-73
2021/01/14 07:03:22;;;;;;;5.83;3.67;;;;;;;2.75;100.00;101084.28;5023822;28;20183;-73
2021/01/14 07:05:53;;;;;;;5.50;3.90;;;;;;;2.70;100.00;101088.63;5055262;28;20282;-73
2021/01/14 07:08:40;;;;;;;5.30;3.73;;;;;;;2.54;100.00;101089.09;5072129;28;20675;-73
2021/01/14 07:11:11;;;;;;;7.70;3.90;;;;;;;2.59;100.00;101091.16;5071136;28;20264;-73
2021/01/14 07:13:39;;;;;;;6.40;4.17;;;;;;;2.61;100.00;101094.44;5070815;28;20558;-73
2021/01/14 07:16:07;;;;;;;5.47;3.90;;;;;;;2.64;100.00;101099.38;5021166;28;20222;-73
2021/01/14 07:18:34;;;;;;;5.03;3.87;;;;;;;2.70;99.98;101110.09;5055598;28;20233;-73
2021/01/14 07:21:05;;;;;;;6.87;4.00;;;;;;;2.73;99.86;101115.84;5021370;28;20223;-73
2021/01/14 07:23:35;;;;;;;4.77;3.63;;;;;;;2.57;99.74;101115.50;5071474;28;20649;-73
2021/01/14 07:26:01;;;;;;;8.70;4.20;;;;;;;2.66;99.89;101127.63;5072337;28;20269;-74
2021/01/14 07:28:26;;;;;;;7.00;3.97;;;;;;;2.65;100.00;101127.84;5074215;28;20198;-73
2021/01/14 07:30:58;;;;;;;6.97;4.57;;;;;;;2.73;99.93;101131.94;5056606;28;20617;-72
2021/01/14 07:33:27;;;;;;;7.20;4.10;;;;;;;2.86;99.93;101133.78;5044301;28;20199;-73
2021/01/14 07:35:55;;;;;;;5.53;4.53;;;;;;;2.92;99.42;101143.66;5023313;28;20222;-73
2021/01/14 07:38:23;;;;;;;6.33;4.87;;;;;;;2.67;100.00;101140.84;5057378;28;20179;-72
2021/01/14 07:40:52;;;;;;;7.43;4.93;;;;;;;2.74;100.00;101154.22;5050782;28;20220;-73
2021/01/14 07:43:18;;;;;;;6.13;4.60;;;;;;;2.84;100.00;101160.78;5055025;28;20183;-72
2021/01/14 07:45:46;;;;;;;9.30;5.00;;;;;;;2.71;100.00;101158.16;5053619;28;20231;-73
2021/01/14 07:48:19;;;;;;;6.70;4.47;;;;;;;2.81;100.00;101163.88;5071911;28;20378;-72
2021/01/14 07:50:55;;;;;;;8.27;4.30;;;;;;;2.95;100.00;101173.56;5038046;28;20219;-72
2021/01/14 07:53:21;;;;;;;6.70;4.40;;;;;;;2.72;100.00;101173.19;5071084;28;20675;-72
2021/01/14 07:55:47;;;;;;;6.73;4.80;;;;;;;2.71;100.00;101184.13;5055676;28;20230;-73
2021/01/14 07:58:19;;;;;;;8.40;5.03;;;;;;;2.87;100.00;101181.81;5054760;28;20191;-73
2021/01/14 08:01:03;;;;;;;10.53;5.07;;;;;;;2.81;100.00;101182.66;5053742;28;20653;-73
2021/01/14 08:03:44;;;;;;;9.00;5.03;;;;;;;2.63;100.00;101188.88;5072316;28;20240;-73
2021/01/14 08:06:25;;;;;;;6.47;4.63;;;;;;;2.56;100.00;101193.44;5037400;28;20235;-72
2021/01/14 08:09:06;;;;;;;7.67;5.70;;;;;;;2.80;100.00;101181.03;5054510;28;20181;-73
2021/01/14 08:11:46;;;;;;;7.17;5.23;;;;;;;2.94;100.00;101197.91;5053944;28;20233;-73
2021/01/14 08:14:20;;;;;;;10.23;5.67;;;;;;;2.92;100.00;101190.06;5070437;28;20245;-72
2021/01/14 08:16:49;;;;;;;8.63;5.67;;;;;;;2.53;100.00;101193.88;5053298;28;20690;-73
2021/01/14 08:19:37;;;;;;;7.77;5.77;;;;;;;2.65;100.00;101202.91;5072076;28;20666;-71
2021/01/14 08:22:07;;;;;;;11.93;6.03;;;;;;;2.87;100.00;101197.91;5053462;28;20229;-72
2021/01/14 08:24:39;;;;;;;8.00;6.10;;;;;;;2.68;100.00;101209.50;5069800;28;20680;-72
2021/01/14 08:27:08;;;;;;;10.97;5.70;;;;;;;2.59;100.00;101211.78;5071329;28;20234;-72
2021/01/14 08:29:56;;;;;;;10.20;6.27;;;;;;;2.87;100.00;101216.69;5045261;28;20182;-73
2021/01/14 08:33:11;;;;;;;7.97;5.93;;;;;;;2.83;100.00;101211.94;5089950;28;20703;-73
2021/01/14 08:35:41;;;;;;;8.07;5.87;;;;;;;2.91;100.00;101222.44;4976753;28;20630;-72
2021/01/14 08:38:10;;;;;;;8.17;6.27;;;;;;;3.04;100.00;101223.28;4993428;28;20189;-72
2021/01/14 08:40:36;;;;;;;9.83;6.33;;;;;;;2.81;100.00;101230.13;5026400;28;20218;-72
2021/01/14 08:43:02;;;;;;;8.33;5.90;;;;;;;2.74;100.00;101227.41;5057372;28;20178;-73
2021/01/14 08:45:31;;;;;;;8.90;6.10;;;;;;;2.66;100.00;101228.69;5093481;28;20235;-73
2021/01/14 08:48:10;;;;;;;9.57;6.00;;;;;;;2.60;100.00;101238.38;5094663;28;20643;-73
2021/01/14 08:50:48;;;;;;;8.57;6.50;;;;;;;2.67;100.00;101241.06;5077090;28;20258;-73
2021/01/14 08:53:25;;;;;;;9.87;6.30;;;;;;;2.51;100.00;101245.00;5098402;28;20174;-72
2021/01/14 08:56:00;;;;;;;7.50;5.77;;;;;;;2.51;100.00;101245.00;5090391;28;20233;-72
2021/01/14 08:58:32;;;;;;;10.53;6.30;;;;;;;2.56;100.00;101247.03;5073462;28;20235;-73
2021/01/14 09:01:03;;;;;;;10.23;6.10;;;;;;;2.25;100.00;101260.19;5055960;28;20218;-72
2021/01/14 09:03:28;;;;;;;9.67;6.33;;;;;;;2.49;100.00;101254.25;5090413;28;20205;-73
2021/01/14 09:05:56;;;;;;;12.73;7.27;;;;;;;2.59;100.00;101273.44;5089148;28;20226;-73
2021/01/14 09:08:24;;;;;;;12.63;6.60;;;;;;;2.35;100.00;101274.84;5090498;28;20185;-72
2021/01/14 09:10:51;;;;;;;9.20;6.33;;;;;;;2.39;100.00;101273.41;5056457;28;20225;-73
2021/01/14 09:13:20;;;;;;;9.17;6.00;;;;;;;2.39;100.00;101283.31;5057242;28;20193;-72
2021/01/14 09:15:49;;;;;;;7.90;5.83;;;;;;;2.29;100.00;101280.22;5073189;28;20278;-73
2021/01/14 09:18:15;;;;;;;8.63;6.30;;;;;;;2.51;100.00;101287.03;5073195;28;20968;-72
2021/01/14 09:20:41;;;;;;;7.77;6.10;;;;;;;2.74;100.00;101283.72;5073486;28;20607;-72
2021/01/14 09:23:19;;;;;;;11.23;6.57;;;;;;;3.04;100.00;101290.34;5090201;28;20197;-72
2021/01/14 09:25:48;;;;;;;8.53;5.87;;;;;;;2.91;100.00;101301.09;5089365;28;20221;-72
2021/01/14 09:28:16;;;;;;;9.40;5.50;;;;;;;2.88;100.00;101306.03;5073558;28;20594;-73
2021/01/14 09:30:42;;;;;;;10.97;5.30;;;;;;;2.88;100.00;101312.22;5056851;28;20692;-73
2021/01/14 09:33:10;;;;;;;9.63;5.37;;;;;;;3.06;100.00;101315.09;5073931;28;20620;-72
2021/01/14 09:35:36;;;;;;;11.17;6.20;;;;;;;2.81;100.00;101316.75;5040575;28;20713;-72
2021/01/14 09:38:01;;;;;;;8.43;5.93;;;;;;;3.03;100.00;101304.78;5094765;28;20182;-73
2021/01/14 09:40:29;;;;;;;10.17;5.30;;;;;;;3.08;100.00;101313.03;5060261;28;20225;-75
2021/01/14 09:42:55;;;;;;;7.80;5.70;;;;;;;3.16;99.13;101310.13;5094578;28;20183;-73
2021/01/14 09:45:21;;;;;;;8.83;4.93;;;;;;;3.22;100.00;101317.34;5059584;28;20240;-72
2021/01/14 09:47:50;;;;;;;8.03;5.23;;;;;;;3.33;98.70;101311.31;5094655;28;20174;-72
2021/01/14 09:50:16;;;;;;;9.57;6.03;;;;;;;3.29;97.95;101321.66;5092224;28;20233;-73
2021/01/14 09:52:42;;;;;;;8.93;5.53;;;;;;;3.21;99.24;101318.38;5060182;28;20175;-73
2021/01/14 09:55:13;;;;;;;7.10;5.10;;;;;;;3.16;98.93;101318.16;5059117;28;20224;-73
2021/01/14 09:57:47;;;;;;;8.33;5.07;;;;;;;3.00;99.57;101320.47;5076807;28;20659;-72
2021/01/14 10:00:18;;;;;;;8.27;5.10;;;;;;;3.19;99.82;101325.81;5059901;28;20194;-73
2021/01/14 10:02:45;;;;;;;7.80;5.03;;;;;;;3.05;100.00;101326.03;5060927;28;20178;-73
2021/01/14 10:05:12;;;;;;;6.60;4.50;;;;;;;2.87;99.72;101329.31;5059672;28;20216;-72
2021/01/14 10:07:37;;;;;;;8.23;4.70;;;;;;;3.10;99.82;101327.06;5076907;28;20596;-73
2021/01/14 10:10:04;;;;;;;5.97;4.30;;;;;;;3.17;98.67;101327.88;5059475;28;20171;-73
2021/01/14 10:12:32;;;;;;;7.87;4.90;;;;;;;2.89;99.00;101334.50;5059845;28;20537;-72
2021/01/14 10:15:12;;;;;;;6.97;4.57;;;;;;;2.98;99.73;101339.44;5076907;28;20204;-72
2021/01/14 10:17:41;;;;;;;8.70;5.03;;;;;;;3.03;99.76;101339.66;5077140;28;20259;-72
2021/01/14 10:20:12;;;;;;;8.30;4.77;;;;;;;3.04;99.06;101345.84;5076183;28;20191;-72
2021/01/14 10:22:52;;;;;;;8.13;5.20;;;;;;;3.27;97.79;101345.19;5059893;28;20302;-72
2021/01/14 10:25:20;;;;;;;10.33;4.97;;;;;;;3.37;97.39;101345.63;5067721;28;20703;-72
2021/01/14 10:28:04;;;;;;;9.63;4.87;;;;;;;3.46;96.95;101347.84;5065469;28;20177;-73
2021/01/14 10:30:30;;;;;;;8.77;4.47;;;;;;;3.22;96.66;101349.53;5112448;28;20224;-72
2021/01/14 10:33:03;;;;;;;6.97;4.83;;;;;;;3.41;97.76;101359.41;5096400;28;20174;-73
2021/01/14 10:35:29;;;;;;;11.20;6.00;;;;;;;3.75;96.58;101352.72;5078342;28;20251;-72
2021/01/14 10:38:06;;;;;;;7.53;4.47;;;;;;;3.58;95.37;101350.72;5079992;28;20178;-73
2021/01/14 10:40:47;;;;;;;7.23;4.97;;;;;;;3.68;94.81;101354.63;5095610;28;20221;-73
2021/01/14 10:43:27;;;;;;;6.27;4.80;;;;;;;3.63;94.72;101362.47;5064432;28;20182;-73
2021/01/14 10:45:52;;;;;;;5.97;4.70;;;;;;;3.31;95.92;101350.97;5112358;28;20859;-73
2021/01/14 10:48:18;;;;;;;9.47;4.27;;;;;;;3.37;95.90;101360.88;5079192;28;20209;-72
2021/01/14 10:50:52;;;;;;;8.77;5.40;;;;;;;3.27;95.98;101360.47;5095477;28;20690;-72
2021/01/14 10:53:45;;;;;;;8.23;5.30;;;;;;;2.92;98.82;101371.63;5082710;28;20182;-72
2021/01/14 10:56:16;;;;;;;7.63;4.63;;;;;;;3.13;99.32;101364.19;5053603;28;20229;-73
2021/01/14 10:58:44;;;;;;;7.23;4.87;;;;;;;3.32;97.29;101360.69;5056195;28;20187;-72
2021/01/14 11:01:22;;;;;;;10.23;4.60;;;;;;;3.05;97.02;101367.09;5054803;28;20246;-73
2021/01/14 11:03:49;;;;;;;6.60;4.97;;;;;;;2.97;97.70;101367.31;5055729;28;20241;-72
2021/01/14 11:06:36;;;;;;;7.67;5.00;;;;;;;2.98;96.90;101371.63;5038030;28;20225;-72
2021/01/14 11:09:10;;;;;;;6.63;5.17;;;;;;;3.00;98.00;101364.19;5071976;28;20611;-73
2021/01/14 11:11:38;;;;;;;7.40;5.40;;;;;;;2.96;99.13;101368.31;5044216;28;20227;-73
2021/01/14 11:14:06;;;;;;;6.47;4.67;;;;;;;3.11;98.08;101360.91;5092250;28;20194;-75
2021/01/14 11:16:32;;;;;;;8.87;4.87;;;;;;;3.14;98.82;101369.34;5058897;28;20221;-73
2021/01/14 11:19:03;;;;;;;6.63;4.77;;;;;;;3.17;98.01;101368.97;5041680;28;20212;-73
2021/01/14 11:21:34;;;;;;;7.70;5.03;;;;;;;3.26;97.69;101366.88;5074560;28;20224;-74
2021/01/14 11:24:03;;;;;;;11.67;5.50;;;;;;;3.34;98.04;101366.69;5056510;28;20226;-73
2021/01/14 11:26:31;;;;;;;8.67;5.53;;;;;;;3.14;97.85;101368.53;5074194;28;20221;-72
2021/01/14 11:28:56;;;;;;;8.87;5.50;;;;;;;3.40;97.88;101372.00;5093389;28;20162;-72
2021/01/14 11:31:25;;;;;;;12.87;9.70;;;;;;;3.53;96.97;101369.31;5074301;28;20248;-72
2021/01/14 11:33:54;;;;;;;8.07;5.93;;;;;;;3.49;96.32;101376.97;5075050;28;20296;-73
2021/01/14 11:36:22;;;;;;;22.90;14.07;;;;;;;3.29;96.80;101371.84;5074217;28;20222;-73
2021/01/14 11:38:50;;;;;;;24.57;13.50;;;;;;;3.17;97.35;101382.38;5091938;28;20239;-72
2021/01/14 11:41:18;;;;;;;12.60;8.20;;;;;;;3.23;97.66;101386.09;5057966;28;20226;-72
2021/01/14 11:43:47;;;;;;;12.90;7.23;;;;;;;3.33;97.35;101381.94;5074370;28;20247;-73